createdAt,value
2018-12-19T00:00:55.990Z,68.00
2018-12-19T00:03:23.534Z,62.03
2018-12-19T00:05:51.098Z,51.63
2018-12-19T00:08:18.594Z,57.00
2018-12-19T00:10:46.031Z,64.33
2018-12-19T00:13:15.507Z,59.60
2018-12-19T00:15:42.983Z,58.47
2018-12-19T00:18:10.570Z,64.43
2018-12-19T00:20:38.063Z,64.27
2018-12-19T00:23:05.524Z,63.83
2018-12-19T00:25:32.957Z,64.83
2018-12-19T00:28:00.431Z,65.73
2018-12-19T00:30:27.888Z,64.03
2018-12-19T00:32:55.343Z,63.97
2018-12-19T00:35:22.833Z,65.20
2018-12-19T00:37:50.276Z,66.53
2018-12-19T00:40:17.735Z,64.13
2018-12-19T00:42:45.191Z,65.37
2018-12-19T00:45:12.802Z,66.80
2018-12-19T00:47:40.222Z,71.20
2018-12-19T00:50:07.993Z,70.23
2018-12-19T00:52:35.577Z,69.97
2018-12-19T00:55:03.266Z,59.60
2018-12-19T00:57:30.750Z,66.03
2018-12-19T00:59:58.176Z,64.27
2018-12-19T01:02:25.625Z,67.93
2018-12-19T01:04:53.327Z,66.67
2018-12-19T01:07:20.816Z,66.33
2018-12-19T01:09:48.383Z,66.50
2018-12-19T01:12:15.861Z,66.33
2018-12-19T01:14:43.368Z,62.97
2018-12-19T01:17:10.865Z,69.37
2018-12-19T01:19:38.487Z,62.73
2018-12-19T01:22:05.934Z,66.93
2018-12-19T01:24:33.373Z,66.00
2018-12-19T01:27:00.864Z,69.60
2018-12-19T01:32:05.911Z,71.77
2018-12-19T01:34:33.380Z,75.03
2018-12-19T01:37:00.879Z,80.67
2018-12-19T01:39:28.347Z,77.63
2018-12-19T01:41:55.792Z,76.27
2018-12-19T01:44:23.271Z,74.83
2018-12-19T01:46:50.714Z,72.37
2018-12-19T01:49:18.299Z,72.03
2018-12-19T01:51:45.754Z,72.70
2018-12-19T01:54:13.250Z,67.10
2018-12-19T01:56:40.712Z,64.23
2018-12-19T01:59:08.143Z,57.13
2018-12-19T02:01:35.660Z,61.03
2018-12-19T02:04:03.143Z,64.07
2018-12-19T02:06:30.899Z,61.43
2018-12-19T02:08:58.363Z,63.80
2018-12-19T02:11:25.802Z,59.50
2018-12-19T02:13:53.293Z,56.20
2018-12-19T02:16:21.046Z,61.27
2018-12-19T02:18:48.638Z,53.67
2018-12-19T02:21:16.095Z,60.77
2018-12-19T02:23:43.556Z,52.27
2018-12-19T02:26:11.050Z,63.77
2018-12-19T02:28:38.539Z,66.30
2018-12-19T02:31:05.997Z,62.13
2018-12-19T02:33:33.482Z,59.77
2018-12-19T02:36:01.035Z,60.97
2018-12-19T02:38:28.500Z,70.93
2018-12-19T02:40:55.939Z,61.93
2018-12-19T02:43:23.555Z,68.83
2018-12-19T02:45:50.977Z,74.03
2018-12-19T02:48:18.568Z,66.63
2018-12-19T02:50:46.032Z,73.30
2018-12-19T02:53:13.584Z,64.67
2018-12-19T02:55:41.075Z,61.37
2018-12-19T02:58:08.598Z,69.87
2018-12-19T03:00:36.074Z,65.70
2018-12-19T03:03:03.637Z,68.90
2018-12-19T03:05:31.109Z,73.93
2018-12-19T03:07:58.565Z,76.63
2018-12-19T03:10:26.038Z,71.23
2018-12-19T03:12:53.506Z,76.87
2018-12-19T03:15:21.073Z,73.90
2018-12-19T03:17:48.530Z,65.90
2018-12-19T03:20:15.996Z,71.23
2018-12-19T03:22:43.579Z,71.17
2018-12-19T03:25:11.182Z,69.40
2018-12-19T03:27:38.735Z,70.33
2018-12-19T03:30:06.830Z,64.73
2018-12-19T03:32:34.312Z,68.47
2018-12-19T03:35:01.767Z,76.13
2018-12-19T03:37:29.222Z,67.20
2018-12-19T03:39:56.679Z,71.73
2018-12-19T03:42:24.155Z,71.33
2018-12-19T03:44:51.594Z,75.57
2018-12-19T03:47:19.106Z,67.50
2018-12-19T03:49:46.977Z,70.97
2018-12-19T03:52:14.459Z,71.67
2018-12-19T03:54:41.955Z,71.20
2018-12-19T03:57:09.761Z,69.97
2018-12-19T03:59:37.180Z,73.83
2018-12-19T04:02:04.844Z,73.97
2018-12-19T04:04:32.304Z,70.97
2018-12-19T04:06:59.864Z,75.40
2018-12-19T04:09:27.359Z,67.57
2018-12-19T04:11:54.817Z,78.33
2018-12-19T04:14:22.291Z,67.27
2018-12-19T04:16:49.750Z,84.23
2018-12-19T04:19:17.199Z,76.33
2018-12-19T04:21:44.667Z,78.10
2018-12-19T04:24:12.118Z,78.03
2018-12-19T04:26:40.059Z,82.33
2018-12-19T04:29:07.536Z,73.40
2018-12-19T04:31:34.971Z,80.17
2018-12-19T04:34:02.436Z,79.37
2018-12-19T04:36:30.110Z,79.73
2018-12-19T04:38:57.577Z,76.40
2018-12-19T04:41:25.207Z,77.77
2018-12-19T04:43:52.676Z,71.83
2018-12-19T04:46:20.107Z,73.90
2018-12-19T04:48:47.723Z,74.83
2018-12-19T04:51:15.199Z,66.87
2018-12-19T04:53:42.629Z,72.07
2018-12-19T04:56:10.089Z,67.53
2018-12-19T04:58:37.940Z,79.13
2018-12-19T05:01:05.673Z,80.57
2018-12-19T05:03:33.171Z,70.30
2018-12-19T05:06:01.461Z,72.97
2018-12-19T05:08:29.178Z,70.10
2018-12-19T05:10:56.637Z,64.07
2018-12-19T05:13:24.201Z,67.37
2018-12-19T05:15:51.678Z,63.53
2018-12-19T05:18:19.200Z,62.60
2018-12-19T05:20:46.659Z,69.43
2018-12-19T05:23:14.139Z,66.00
2018-12-19T05:25:41.595Z,76.13
2018-12-19T05:28:09.040Z,77.97
2018-12-19T05:30:36.572Z,74.17
2018-12-19T05:33:04.027Z,77.40
2018-12-19T05:35:31.499Z,85.63
2018-12-19T05:37:58.979Z,81.33
2018-12-19T05:40:26.414Z,94.20
2018-12-19T05:42:53.896Z,101.80
2018-12-19T05:45:21.387Z,90.97
2018-12-19T05:47:48.880Z,105.20
2018-12-19T05:50:17.827Z,120.80
2018-12-19T05:52:45.693Z,133.87
2018-12-19T05:55:13.445Z,107.17
2018-12-19T05:57:41.076Z,112.80
2018-12-19T06:00:08.878Z,100.30
2018-12-19T06:02:36.357Z,96.57
2018-12-19T06:05:04.944Z,92.97
2018-12-19T06:07:32.437Z,82.90
2018-12-19T06:09:59.850Z,78.10
2018-12-19T06:12:27.307Z,83.20
2018-12-19T06:14:54.877Z,75.80
2018-12-19T06:17:22.482Z,76.37
2018-12-19T06:19:49.954Z,64.43
2018-12-19T06:22:17.386Z,72.87
2018-12-19T06:24:44.893Z,68.07
2018-12-19T06:27:12.406Z,65.80
2018-12-19T06:29:39.866Z,70.80
2018-12-19T06:32:07.475Z,68.20
2018-12-19T06:34:34.978Z,74.47
2018-12-19T06:37:02.427Z,61.30
2018-12-19T06:39:29.842Z,62.40
2018-12-19T06:41:57.330Z,67.70
2018-12-19T06:44:24.767Z,67.60
2018-12-19T06:46:52.252Z,61.60
2018-12-19T06:49:19.734Z,65.93
2018-12-19T06:51:47.365Z,65.80
2018-12-19T06:54:14.836Z,70.33
2018-12-19T06:56:42.308Z,68.70
2018-12-19T06:59:09.804Z,74.80
2018-12-19T07:01:37.357Z,78.73
2018-12-19T07:04:04.947Z,79.83
2018-12-19T07:06:32.518Z,83.77
2018-12-19T07:09:00.260Z,72.30
2018-12-19T07:11:27.825Z,74.70
2018-12-19T07:13:55.275Z,78.97
2018-12-19T07:16:22.745Z,79.07
2018-12-19T07:18:50.189Z,75.20
2018-12-19T07:21:17.658Z,86.23
2018-12-19T07:23:45.258Z,88.23
2018-12-19T07:26:12.742Z,84.07
2018-12-19T07:28:40.186Z,74.77
2018-12-19T07:31:07.667Z,76.57
2018-12-19T07:33:35.135Z,80.30
2018-12-19T07:36:02.606Z,68.70
2018-12-19T07:38:30.046Z,69.20
2018-12-19T07:40:57.541Z,66.33
2018-12-19T07:43:24.996Z,66.87
2018-12-19T07:45:52.439Z,68.37
2018-12-19T07:48:20.261Z,64.47
2018-12-19T07:50:47.703Z,69.87
2018-12-19T07:53:15.176Z,67.20
2018-12-19T07:55:43.093Z,71.63
2018-12-19T07:58:10.747Z,68.33
2018-12-19T08:00:38.187Z,62.50
2018-12-19T08:03:05.650Z,57.10
2018-12-19T08:05:33.118Z,66.40
2018-12-19T08:08:00.790Z,63.33
2018-12-19T08:10:28.245Z,58.73
2018-12-19T08:12:55.698Z,62.07
2018-12-19T08:15:23.178Z,59.37
2018-12-19T08:17:50.640Z,65.93
2018-12-19T08:20:18.138Z,57.63
2018-12-19T08:22:45.595Z,59.63
2018-12-19T08:25:13.257Z,58.70
2018-12-19T08:27:40.719Z,58.20
2018-12-19T08:30:09.438Z,61.57
2018-12-19T08:32:36.967Z,58.33
2018-12-19T08:35:05.009Z,61.77
2018-12-19T08:37:32.584Z,59.17
2018-12-19T08:40:00.131Z,55.47
2018-12-19T08:42:27.620Z,60.40
2018-12-19T08:44:55.101Z,53.07
2018-12-19T08:47:22.573Z,52.53
2018-12-19T08:49:50.024Z,57.23
2018-12-19T08:52:17.596Z,52.17
2018-12-19T08:54:45.083Z,51.43
2018-12-19T08:57:12.767Z,48.40
2018-12-19T08:59:40.322Z,46.20
2018-12-19T09:02:07.921Z,47.37
2018-12-19T09:04:35.395Z,48.40
2018-12-19T09:07:02.989Z,43.07
2018-12-19T09:09:31.826Z,47.07
2018-12-19T09:11:59.503Z,40.63
2018-12-19T09:14:26.962Z,37.43
2018-12-19T09:19:32.418Z,36.93
2018-12-19T09:22:00.398Z,32.57
2018-12-19T09:24:28.004Z,28.93
2018-12-19T09:26:55.466Z,27.10
2018-12-19T09:29:23.059Z,28.10
2018-12-19T09:31:50.634Z,29.40
2018-12-19T09:34:18.134Z,30.00
2018-12-19T09:36:45.595Z,26.97
2018-12-19T09:39:13.046Z,25.40
2018-12-19T09:41:40.532Z,29.77
2018-12-19T09:44:08.670Z,30.80
2018-12-19T09:46:36.377Z,22.73
2018-12-19T09:49:03.859Z,27.40
2018-12-19T09:51:31.330Z,24.10
2018-12-19T09:53:58.920Z,24.33
2018-12-19T09:56:26.385Z,25.13
2018-12-19T09:58:53.926Z,21.00
2018-12-19T10:01:21.404Z,22.77
2018-12-19T10:03:48.866Z,22.33
2018-12-19T10:06:16.334Z,24.37
2018-12-19T10:08:43.855Z,22.77
2018-12-19T10:11:11.307Z,24.40
2018-12-19T10:13:38.745Z,23.43
2018-12-19T10:16:06.444Z,23.53
2018-12-19T10:18:33.919Z,25.10
2018-12-19T10:21:01.412Z,27.73
2018-12-19T10:23:28.994Z,24.50
2018-12-19T10:26:02.311Z,24.90
2018-12-19T10:28:33.567Z,27.70
2018-12-19T10:31:01.127Z,27.17
2018-12-19T10:33:28.566Z,26.83
2018-12-19T10:35:56.071Z,28.43
2018-12-19T10:38:23.590Z,26.27
2018-12-19T10:40:51.040Z,25.40
2018-12-19T10:43:18.496Z,26.67
2018-12-19T10:45:45.968Z,26.60
2018-12-19T10:48:13.415Z,28.50
2018-12-19T10:50:40.911Z,31.70
2018-12-19T10:53:08.371Z,28.50
2018-12-19T10:55:35.814Z,26.47
2018-12-19T10:58:03.413Z,28.50
2018-12-19T11:00:36.748Z,30.60
2018-12-19T11:03:04.235Z,30.13
2018-12-19T11:05:31.838Z,31.90
2018-12-19T11:07:59.451Z,30.60
2018-12-19T11:10:26.955Z,33.13
2018-12-19T11:12:54.416Z,30.13
2018-12-19T11:15:21.914Z,29.83
2018-12-19T11:20:26.884Z,33.73
2018-12-19T11:22:54.357Z,29.63
2018-12-19T11:25:21.813Z,32.90
2018-12-19T11:27:49.306Z,35.53
2018-12-19T11:30:16.861Z,32.07
2018-12-19T11:35:19.865Z,31.70
2018-12-19T11:37:47.361Z,34.03
2018-12-19T11:40:14.806Z,30.23
2018-12-19T11:42:42.281Z,36.20
2018-12-19T11:45:09.867Z,36.60
2018-12-19T11:47:37.512Z,35.03
2018-12-19T11:50:06.679Z,36.13
2018-12-19T11:52:34.120Z,33.70
2018-12-19T11:55:01.587Z,34.40
2018-12-19T11:57:29.287Z,36.00
2018-12-19T11:59:56.775Z,37.67
2018-12-19T12:02:24.227Z,35.30
2018-12-19T12:04:51.729Z,33.73
2018-12-19T12:07:19.599Z,34.07
2018-12-19T12:09:47.050Z,32.13
2018-12-19T12:12:14.546Z,34.80
2018-12-19T12:14:41.979Z,32.73
2018-12-19T12:17:09.479Z,37.40
2018-12-19T12:19:36.931Z,38.73
2018-12-19T12:22:04.367Z,34.77
2018-12-19T12:24:31.839Z,39.87
2018-12-19T12:26:59.439Z,33.53
2018-12-19T12:29:26.879Z,34.97
2018-12-19T12:31:54.323Z,37.50
2018-12-19T12:34:21.777Z,37.83
2018-12-19T12:36:49.266Z,35.70
2018-12-19T12:39:16.743Z,38.20
2018-12-19T12:41:44.196Z,37.73
2018-12-19T12:44:11.634Z,39.03
2018-12-19T12:46:39.103Z,36.57
2018-12-19T12:49:06.583Z,32.43
2018-12-19T12:51:34.016Z,38.63
2018-12-19T12:54:01.495Z,36.60
2018-12-19T12:56:29.015Z,41.43
2018-12-19T12:58:56.461Z,37.53
2018-12-19T13:01:23.949Z,42.33
2018-12-19T13:03:51.415Z,41.90
2018-12-19T13:06:18.906Z,38.10
2018-12-19T13:08:46.373Z,38.33
2018-12-19T13:11:13.999Z,39.90
2018-12-19T13:13:41.671Z,38.73
2018-12-19T13:16:09.098Z,35.10
2018-12-19T13:18:36.591Z,40.83
2018-12-19T13:21:04.061Z,40.87
2018-12-19T13:23:31.590Z,43.40
2018-12-19T13:25:59.099Z,43.97
2018-12-19T13:28:26.544Z,40.07
2018-12-19T13:30:54.090Z,39.37
2018-12-19T13:33:21.548Z,43.33
2018-12-19T13:35:49.027Z,41.53
2018-12-19T13:38:16.488Z,43.37
2018-12-19T13:40:43.929Z,48.00
2018-12-19T13:43:11.411Z,47.67
2018-12-19T13:45:38.858Z,43.10
2018-12-19T13:48:06.299Z,46.43
2018-12-19T13:50:33.799Z,40.33
2018-12-19T13:53:01.271Z,38.53
2018-12-19T13:55:30.374Z,47.40
2018-12-19T13:57:57.941Z,44.03
2018-12-19T14:00:25.464Z,48.20
2018-12-19T14:02:52.938Z,49.03
2018-12-19T14:05:20.540Z,46.70
2018-12-19T14:07:48.017Z,44.47
2018-12-19T14:10:15.485Z,49.57
2018-12-19T14:12:42.983Z,49.77
2018-12-19T14:15:10.512Z,45.47
2018-12-19T14:17:37.979Z,51.27
2018-12-19T14:20:06.234Z,51.90
2018-12-19T14:22:33.660Z,53.37
2018-12-19T14:25:01.126Z,53.90
2018-12-19T14:27:28.584Z,52.20
2018-12-19T14:29:56.075Z,50.87
2018-12-19T14:32:23.642Z,52.20
2018-12-19T14:34:51.113Z,55.70
2018-12-19T14:37:18.636Z,56.27
2018-12-19T14:39:46.167Z,53.53
2018-12-19T14:42:18.986Z,56.77
2018-12-19T14:44:43.119Z,51.93
2018-12-19T14:47:10.555Z,58.30
2018-12-19T14:49:38.020Z,53.57
2018-12-19T14:52:05.559Z,53.90
2018-12-19T14:54:33.149Z,54.77
2018-12-19T14:57:00.717Z,58.13
2018-12-19T14:59:28.158Z,53.17
2018-12-19T15:01:55.623Z,51.47
2018-12-19T15:04:23.049Z,55.53
2018-12-19T15:06:50.550Z,47.60
2018-12-19T15:09:18.123Z,57.47
2018-12-19T15:11:45.599Z,57.67
2018-12-19T15:14:13.124Z,59.63
2018-12-19T15:16:40.633Z,57.63
2018-12-19T15:19:08.176Z,55.23
2018-12-19T15:21:35.698Z,47.63
2018-12-19T15:24:03.158Z,49.77
2018-12-19T15:26:30.595Z,55.43
2018-12-19T15:28:58.094Z,54.93
2018-12-19T15:31:25.521Z,49.37
2018-12-19T15:33:52.963Z,50.53
2018-12-19T15:36:20.433Z,48.33
2018-12-19T15:38:47.955Z,52.00
2018-12-19T15:41:15.466Z,47.70
2018-12-19T15:43:42.904Z,43.83
2018-12-19T15:46:10.395Z,45.93
2018-12-19T15:48:37.877Z,48.20
2018-12-19T15:53:43.408Z,45.97
2018-12-19T15:56:10.898Z,50.43
2018-12-19T15:58:38.380Z,44.97
2018-12-19T16:01:06.002Z,44.43
2018-12-19T16:03:33.578Z,40.87
2018-12-19T16:06:01.025Z,41.07
2018-12-19T16:08:28.499Z,40.10
2018-12-19T16:10:56.134Z,45.97
2018-12-19T16:13:23.618Z,39.03
2018-12-19T16:15:51.108Z,35.10
2018-12-19T16:18:18.618Z,38.97
2018-12-19T16:20:46.110Z,34.83
2018-12-19T16:23:13.565Z,39.27
2018-12-19T16:25:41.040Z,37.87
2018-12-19T16:30:01.939Z,39.83
2018-12-19T16:32:29.394Z,37.83
2018-12-19T16:34:56.979Z,37.40
2018-12-19T16:37:24.461Z,39.17
2018-12-19T16:39:51.908Z,37.97
2018-12-19T16:42:19.475Z,31.73
2018-12-19T16:44:46.962Z,38.17
2018-12-19T16:47:14.418Z,32.53
2018-12-19T16:49:41.848Z,36.73
2018-12-19T16:52:09.361Z,35.87
2018-12-19T16:54:36.819Z,31.53
2018-12-19T16:57:04.294Z,35.17
2018-12-19T16:59:31.830Z,31.50
2018-12-19T17:01:59.935Z,31.43
2018-12-19T17:04:27.414Z,37.43
2018-12-19T17:06:54.971Z,33.70
2018-12-19T17:09:22.494Z,37.83
2018-12-19T17:11:49.934Z,34.80
2018-12-19T17:14:24.481Z,36.43
2018-12-19T17:16:52.206Z,36.97
2018-12-19T17:19:20.140Z,41.83
2018-12-19T17:21:48.198Z,36.93
2018-12-19T17:24:17.155Z,38.70
2018-12-19T17:26:44.926Z,38.47
2018-12-19T17:29:12.810Z,44.53
2018-12-19T17:31:40.857Z,41.37
2018-12-19T17:34:08.775Z,47.63
2018-12-19T17:36:36.775Z,45.90
2018-12-19T17:39:05.935Z,50.57
2018-12-19T17:41:33.688Z,44.97
2018-12-19T17:44:01.625Z,47.53
2018-12-19T17:46:29.504Z,46.90
2018-12-19T17:48:57.785Z,47.57
2018-12-19T17:51:27.024Z,46.23
2018-12-19T17:53:55.237Z,49.10
2018-12-19T17:56:23.423Z,48.97
2018-12-19T17:58:51.833Z,41.97
2018-12-19T18:01:21.255Z,50.70
2018-12-19T18:03:49.247Z,46.33
2018-12-19T18:06:18.090Z,44.77
2018-12-19T18:08:46.767Z,46.87
2018-12-19T18:11:15.003Z,42.93
2018-12-19T18:13:43.487Z,48.83
2018-12-19T18:16:13.705Z,48.00
2018-12-19T18:18:41.806Z,42.87
2018-12-19T18:21:10.544Z,43.27
2018-12-19T18:23:38.738Z,44.87
2018-12-19T18:26:06.814Z,49.30
2018-12-19T18:28:36.198Z,44.47
2018-12-19T18:31:04.295Z,44.23
2018-12-19T18:33:32.573Z,43.03
2018-12-19T18:36:01.114Z,39.47
2018-12-19T18:38:29.366Z,41.87
2018-12-19T18:40:57.421Z,40.83
2018-12-19T18:43:25.954Z,39.70
2018-12-19T18:45:54.154Z,40.67
2018-12-19T18:48:22.666Z,39.37
2018-12-19T18:50:51.199Z,41.30
2018-12-19T18:53:21.604Z,40.97
2018-12-19T18:55:49.781Z,40.53
2018-12-19T18:58:17.604Z,35.87
2018-12-19T19:00:47.200Z,35.43
2018-12-19T19:03:15.356Z,35.00
2018-12-19T19:05:44.626Z,39.63
2018-12-19T19:08:13.016Z,39.70
2018-12-19T19:10:41.429Z,36.93
2018-12-19T19:13:09.538Z,35.23
2018-12-19T19:15:37.779Z,39.60
2018-12-19T19:18:06.266Z,34.03
2018-12-19T19:20:34.535Z,34.70
2018-12-19T19:23:02.758Z,35.20
2018-12-19T19:25:31.118Z,38.17
2018-12-19T19:27:59.236Z,36.87
2018-12-19T19:30:27.519Z,42.30
2018-12-19T19:32:55.735Z,40.93
2018-12-19T19:35:23.904Z,40.03
2018-12-19T19:37:52.093Z,37.60
2018-12-19T19:40:20.445Z,37.30
2018-12-19T19:45:42.507Z,33.30
2018-12-19T19:48:10.554Z,43.23
2018-12-19T19:50:38.618Z,35.97
2018-12-19T19:53:06.696Z,39.00
2018-12-19T19:55:34.784Z,38.10
2018-12-19T19:58:02.833Z,34.50
2018-12-19T20:00:32.212Z,38.63
2018-12-19T20:03:00.958Z,40.47
2018-12-19T20:05:28.981Z,36.07
2018-12-19T20:07:57.048Z,38.50
2018-12-19T20:10:25.097Z,40.20
2018-12-19T20:12:53.164Z,34.57
2018-12-19T20:15:21.231Z,36.43
2018-12-19T20:17:49.288Z,35.93
2018-12-19T20:20:17.319Z,39.97
2018-12-19T20:22:45.365Z,39.10
2018-12-19T20:25:14.025Z,32.40
2018-12-19T20:27:42.056Z,36.07
2018-12-19T20:30:11.627Z,38.57
2018-12-19T20:32:39.741Z,39.23
2018-12-19T20:35:07.877Z,39.27
2018-12-19T20:37:35.949Z,43.60
2018-12-19T20:40:04.244Z,40.90
2018-12-19T20:42:32.715Z,40.27
2018-12-19T20:45:00.722Z,40.37
2018-12-19T20:47:28.790Z,45.20
2018-12-19T20:49:57.941Z,39.33
2018-12-19T20:52:25.926Z,39.43
2018-12-19T20:54:53.956Z,43.70
2018-12-19T20:57:22.110Z,36.17
2018-12-19T20:59:50.237Z,41.67
2018-12-19T21:02:18.237Z,46.87
2018-12-19T21:04:46.337Z,43.67
2018-12-19T21:07:15.306Z,43.17
2018-12-19T21:09:43.348Z,45.27
2018-12-19T21:12:11.427Z,47.53
2018-12-19T21:14:39.442Z,51.63
2018-12-19T21:19:19.124Z,50.97
2018-12-19T21:21:47.209Z,50.50
2018-12-19T21:24:15.229Z,53.90
2018-12-19T21:26:43.198Z,59.80
2018-12-19T21:29:11.212Z,59.47
2018-12-19T21:31:39.292Z,55.23
2018-12-19T21:34:07.294Z,59.63
2018-12-19T21:36:35.255Z,60.90
2018-12-19T21:39:05.176Z,55.47
2018-12-19T21:41:33.223Z,54.20
2018-12-19T21:44:01.180Z,66.63
2018-12-19T21:46:28.964Z,60.57
2018-12-19T21:48:56.644Z,71.13
2018-12-19T21:51:24.201Z,64.80
2018-12-19T21:53:51.700Z,67.03
2018-12-19T21:56:19.249Z,73.23
2018-12-19T21:58:46.825Z,79.87
2018-12-19T22:01:14.677Z,75.03
2018-12-19T22:03:42.331Z,70.60
2018-12-19T22:06:09.853Z,73.67
2018-12-19T22:08:37.468Z,72.07
2018-12-19T22:11:05.249Z,70.10
2018-12-19T22:16:37.003Z,77.03
2018-12-19T22:21:54.675Z,69.47
2018-12-19T22:24:29.464Z,76.00
2018-12-19T22:27:04.607Z,76.70
2018-12-19T22:33:55.209Z,83.13
2018-12-19T22:36:23.480Z,83.17
2018-12-19T22:38:52.900Z,81.37
2018-12-19T22:41:23.252Z,76.43
2018-12-19T22:43:58.209Z,80.87
2018-12-19T22:46:27.326Z,73.43
2018-12-19T22:48:57.061Z,78.20
2018-12-19T22:51:29.877Z,76.10
2018-12-19T22:54:02.094Z,76.97
2018-12-19T22:56:39.459Z,77.73
2018-12-19T22:59:08.724Z,75.33
2018-12-19T23:01:43.626Z,79.83
2018-12-19T23:10:05.024Z,74.60
2018-12-19T23:12:37.448Z,84.87
2018-12-19T23:17:55.610Z,82.07
2018-12-19T23:20:27.293Z,87.53
2018-12-19T23:22:58.749Z,80.93
2018-12-19T23:25:50.916Z,79.03
2018-12-19T23:28:21.516Z,81.67
2018-12-19T23:33:38.298Z,86.20
2018-12-19T23:39:01.486Z,78.00
2018-12-19T23:41:33.045Z,91.20
2018-12-19T23:47:06.780Z,76.37
2018-12-19T23:50:40.877Z,85.80
2018-12-19T23:53:10.574Z,84.03
2018-12-19T23:56:00.918Z,85.27
